createdAt,value
2019-05-16T00:00:03.363Z,1017.02
2019-05-16T00:01:03.344Z,1017.02
2019-05-16T00:02:03.321Z,1017.04
2019-05-16T00:03:03.300Z,1016.98
2019-05-16T00:04:03.279Z,1016.99
2019-05-16T00:05:03.260Z,1017.00
2019-05-16T00:06:03.238Z,1017.00
2019-05-16T00:07:03.222Z,1016.99
2019-05-16T00:08:03.230Z,1017.02
2019-05-16T00:09:03.174Z,1016.98
2019-05-16T00:10:03.154Z,1016.98
2019-05-16T00:11:03.132Z,1016.96
2019-05-16T00:12:03.111Z,1017.00
2019-05-16T00:13:03.094Z,1016.95
2019-05-16T00:14:03.073Z,1016.95
2019-05-16T00:15:03.047Z,1016.93
2019-05-16T00:16:03.028Z,1016.92
2019-05-16T00:17:03.007Z,1016.95
2019-05-16T00:18:02.988Z,1016.91
2019-05-16T00:19:02.964Z,1016.87
2019-05-16T00:20:02.947Z,1016.89
2019-05-16T00:21:02.925Z,1016.89
2019-05-16T00:22:02.910Z,1016.89
2019-05-16T00:23:02.883Z,1016.86
2019-05-16T00:24:02.860Z,1016.90
2019-05-16T00:25:02.844Z,1016.88
2019-05-16T00:26:02.831Z,1016.90
2019-05-16T00:27:02.796Z,1016.83
2019-05-16T00:28:02.774Z,1016.89
2019-05-16T00:29:02.755Z,1016.85
2019-05-16T00:30:02.736Z,1016.86
2019-05-16T00:31:02.749Z,1016.82
2019-05-16T00:32:02.691Z,1016.85
2019-05-16T00:33:02.675Z,1016.81
2019-05-16T00:34:02.649Z,1016.79
2019-05-16T00:35:02.628Z,1016.79
2019-05-16T00:36:05.897Z,1016.83
2019-05-16T00:37:02.587Z,1016.79
2019-05-16T00:38:02.567Z,1016.77
2019-05-16T00:39:02.543Z,1016.76
2019-05-16T00:40:02.534Z,1016.71
2019-05-16T00:41:02.501Z,1016.66
2019-05-16T00:42:02.483Z,1016.71
2019-05-16T00:43:02.462Z,1016.72
2019-05-16T00:44:02.447Z,1016.69
2019-05-16T00:45:02.419Z,1016.70
2019-05-16T00:46:02.403Z,1016.68
2019-05-16T00:47:02.382Z,1016.71
2019-05-16T00:48:02.356Z,1016.68
2019-05-16T00:49:02.347Z,1016.67
2019-05-16T00:50:02.329Z,1016.66
2019-05-16T00:51:02.321Z,1016.66
2019-05-16T00:52:02.275Z,1016.66
2019-05-16T00:53:02.251Z,1016.66
2019-05-16T00:54:02.232Z,1016.64
2019-05-16T00:55:02.213Z,1016.63
2019-05-16T00:56:02.190Z,1016.59
2019-05-16T00:57:02.166Z,1016.52
2019-05-16T00:58:02.150Z,1016.60
2019-05-16T00:59:02.164Z,1016.57
2019-05-16T01:00:02.113Z,1016.56
2019-05-16T01:01:02.083Z,1016.54
2019-05-16T01:02:02.065Z,1016.56
2019-05-16T01:03:02.046Z,1016.53
2019-05-16T01:04:02.021Z,1016.54
2019-05-16T01:05:02.012Z,1016.53
2019-05-16T01:06:01.982Z,1016.51
2019-05-16T01:07:01.974Z,1016.50
2019-05-16T01:08:01.938Z,1016.47
2019-05-16T01:09:01.915Z,1016.44
2019-05-16T01:10:01.895Z,1016.41
2019-05-16T01:11:01.882Z,1016.39
2019-05-16T01:12:01.853Z,1016.41
2019-05-16T01:13:01.832Z,1016.38
2019-05-16T01:14:01.811Z,1016.37
2019-05-16T01:15:01.790Z,1016.35
2019-05-16T01:16:01.771Z,1016.32
2019-05-16T01:17:01.746Z,1016.34
2019-05-16T01:18:01.725Z,1016.35
2019-05-16T01:19:01.704Z,1016.31
2019-05-16T01:20:01.690Z,1016.30
2019-05-16T01:21:01.663Z,1016.34
2019-05-16T01:22:01.642Z,1016.30
2019-05-16T01:23:01.620Z,1016.29
2019-05-16T01:24:01.598Z,1016.30
2019-05-16T01:25:01.581Z,1016.29
2019-05-16T01:26:01.557Z,1016.27
2019-05-16T01:27:01.539Z,1016.24
2019-05-16T01:28:01.515Z,1016.24
2019-05-16T01:29:01.677Z,1016.26
2019-05-16T01:30:01.477Z,1016.20
2019-05-16T01:31:01.456Z,1016.25
2019-05-16T01:32:01.434Z,1016.23
2019-05-16T01:33:01.411Z,1016.25
2019-05-16T01:34:01.397Z,1016.23
2019-05-16T01:35:01.368Z,1016.27
2019-05-16T01:36:01.353Z,1016.22
2019-05-16T01:37:01.323Z,1016.24
2019-05-16T01:38:01.306Z,1016.21
2019-05-16T01:39:01.286Z,1016.23
2019-05-16T01:40:01.267Z,1016.24
2019-05-16T01:41:01.248Z,1016.21
2019-05-16T01:42:01.222Z,1016.22
2019-05-16T01:43:01.196Z,1016.18
2019-05-16T01:44:01.173Z,1016.20
2019-05-16T01:45:01.156Z,1016.18
2019-05-16T01:46:01.134Z,1016.16
2019-05-16T01:47:01.112Z,1016.11
2019-05-16T01:48:01.089Z,1016.14
2019-05-16T01:49:01.071Z,1016.16
2019-05-16T01:50:01.056Z,1016.15
2019-05-16T01:51:01.029Z,1016.13
2019-05-16T01:52:01.007Z,1016.11
2019-05-16T01:53:00.985Z,1016.12
2019-05-16T01:54:00.966Z,1016.08
2019-05-16T01:55:00.943Z,1016.08
2019-05-16T01:56:00.922Z,1016.09
2019-05-16T01:57:00.901Z,1016.08
2019-05-16T01:58:00.880Z,1016.07
2019-05-16T01:59:00.866Z,1016.02
2019-05-16T02:00:00.840Z,1015.99
2019-05-16T02:01:11.342Z,1016.01
2019-05-16T02:02:01.040Z,1016.01
2019-05-16T02:03:00.778Z,1016.01
2019-05-16T02:04:00.753Z,1016.02
2019-05-16T02:05:00.742Z,1016.01
2019-05-16T02:06:00.722Z,1016.03
2019-05-16T02:07:00.696Z,1016.00
2019-05-16T02:08:00.670Z,1016.00
2019-05-16T02:09:00.649Z,1015.97
2019-05-16T02:10:00.628Z,1015.96
2019-05-16T02:11:00.608Z,1015.94
2019-05-16T02:12:00.586Z,1015.91
2019-05-16T02:13:00.562Z,1015.90
2019-05-16T02:14:00.543Z,1015.88
2019-05-16T02:15:00.521Z,1015.89
2019-05-16T02:16:00.505Z,1015.89
2019-05-16T02:17:00.480Z,1015.86
2019-05-16T02:18:00.458Z,1015.84
2019-05-16T02:19:00.437Z,1015.82
2019-05-16T02:20:00.416Z,1015.84
2019-05-16T02:21:01.370Z,1015.81
2019-05-16T02:22:00.374Z,1015.79
2019-05-16T02:23:00.356Z,1015.79
2019-05-16T02:24:02.043Z,1015.82
2019-05-16T02:25:00.310Z,1015.82
2019-05-16T02:26:00.289Z,1015.83
2019-05-16T02:27:00.268Z,1015.83
2019-05-16T02:28:00.251Z,1015.82
2019-05-16T02:29:00.979Z,1015.81
2019-05-16T02:30:00.203Z,1015.76
2019-05-16T02:31:01.362Z,1015.74
2019-05-16T02:32:01.983Z,1015.79
2019-05-16T02:33:01.012Z,1015.75
2019-05-16T02:34:01.258Z,1015.75
2019-05-16T02:35:01.291Z,1015.74
2019-05-16T02:36:01.686Z,1015.73
2019-05-16T02:37:18.861Z,1015.77
2019-05-16T02:38:00.985Z,1015.75
2019-05-16T02:39:01.895Z,1015.73
2019-05-16T02:40:01.211Z,1015.72
2019-05-16T02:41:03.118Z,1015.74
2019-05-16T02:42:01.025Z,1015.71
2019-05-16T02:43:01.781Z,1015.73
2019-05-16T02:44:01.162Z,1015.71
2019-05-16T02:45:02.310Z,1015.74
2019-05-16T02:46:01.307Z,1015.74
2019-05-16T02:47:01.532Z,1015.74
2019-05-16T02:48:01.311Z,1015.73
2019-05-16T02:49:00.872Z,1015.76
2019-05-16T02:50:01.112Z,1015.67
2019-05-16T02:51:01.801Z,1015.71
2019-05-16T02:52:01.335Z,1015.68
2019-05-16T02:53:01.438Z,1015.69
2019-05-16T02:54:01.353Z,1015.69
2019-05-16T02:55:00.870Z,1015.70
2019-05-16T02:56:01.340Z,1015.65
2019-05-16T02:57:01.391Z,1015.68
2019-05-16T02:58:00.695Z,1015.66
2019-05-16T02:59:01.646Z,1015.71
2019-05-16T03:00:01.734Z,1015.71
2019-05-16T03:01:01.816Z,1015.66
2019-05-16T03:02:00.889Z,1015.69
2019-05-16T03:03:01.144Z,1015.66
2019-05-16T03:04:01.726Z,1015.66
2019-05-16T03:05:00.998Z,1015.63
2019-05-16T03:06:01.363Z,1015.65
2019-05-16T03:07:00.607Z,1015.61
2019-05-16T03:08:01.317Z,1015.58
2019-05-16T03:09:04.679Z,1015.53
2019-05-16T03:10:01.591Z,1015.53
2019-05-16T03:11:01.008Z,1015.55
2019-05-16T03:12:01.339Z,1015.52
2019-05-16T03:13:00.843Z,1015.50
2019-05-16T03:14:00.556Z,1015.53
2019-05-16T03:15:02.263Z,1015.46
2019-05-16T03:16:00.613Z,1015.45
2019-05-16T03:17:00.977Z,1015.45
2019-05-16T03:18:03.805Z,1015.39
2019-05-16T03:19:01.214Z,1015.41
2019-05-16T03:20:01.479Z,1015.44
2019-05-16T03:21:00.572Z,1015.40
2019-05-16T03:22:01.183Z,1015.43
2019-05-16T03:23:01.938Z,1015.36
2019-05-16T03:24:00.863Z,1015.38
2019-05-16T03:25:01.093Z,1015.40
2019-05-16T03:26:00.988Z,1015.38
2019-05-16T03:27:01.605Z,1015.41
2019-05-16T03:28:01.768Z,1015.41
2019-05-16T03:29:00.969Z,1015.42
2019-05-16T03:30:01.674Z,1015.42
2019-05-16T03:31:04.349Z,1015.39
2019-05-16T03:32:02.980Z,1015.44
2019-05-16T03:33:04.281Z,1015.45
2019-05-16T03:34:06.557Z,1015.44
2019-05-16T03:35:04.080Z,1015.41
2019-05-16T03:36:04.007Z,1015.40
2019-05-16T03:37:04.284Z,1015.38
2019-05-16T03:38:03.989Z,1015.37
2019-05-16T03:39:01.236Z,1015.37
2019-05-16T03:40:00.618Z,1015.34
2019-05-16T03:41:01.003Z,1015.35
2019-05-16T03:42:01.063Z,1015.34
2019-05-16T03:43:01.360Z,1015.34
2019-05-16T03:44:01.334Z,1015.34
2019-05-16T03:45:01.627Z,1015.34
2019-05-16T03:46:02.146Z,1015.33
2019-05-16T03:47:01.026Z,1015.39
2019-05-16T03:48:02.307Z,1015.36
2019-05-16T03:49:02.086Z,1015.37
2019-05-16T03:50:00.674Z,1015.38
2019-05-16T03:51:00.869Z,1015.39
2019-05-16T03:52:01.605Z,1015.42
2019-05-16T03:53:01.274Z,1015.40
2019-05-16T03:53:58.390Z,1015.40
2019-05-16T03:55:01.390Z,1015.38
2019-05-16T03:56:01.583Z,1015.43
2019-05-16T03:57:00.530Z,1015.38
2019-05-16T03:58:01.178Z,1015.40
2019-05-16T03:59:01.083Z,1015.41
2019-05-16T04:00:00.628Z,1015.36
2019-05-16T04:01:01.848Z,1015.36
2019-05-16T04:02:01.237Z,1015.35
2019-05-16T04:03:01.064Z,1015.35
2019-05-16T04:04:01.409Z,1015.31
2019-05-16T04:05:01.366Z,1015.34
2019-05-16T04:06:00.784Z,1015.35
2019-05-16T04:07:01.112Z,1015.31
2019-05-16T04:08:11.307Z,1015.33
2019-05-16T04:09:01.245Z,1015.27
2019-05-16T04:09:58.042Z,1015.30
2019-05-16T04:11:01.005Z,1015.29
2019-05-16T04:11:57.998Z,1015.30
2019-05-16T04:13:00.896Z,1015.27
2019-05-16T04:13:57.959Z,1015.33
2019-05-16T04:14:57.933Z,1015.27
2019-05-16T04:16:00.966Z,1015.32
2019-05-16T04:17:01.161Z,1015.32
2019-05-16T04:17:57.874Z,1015.32
2019-05-16T04:18:57.855Z,1015.33
2019-05-16T04:19:57.827Z,1015.32
2019-05-16T04:21:00.727Z,1015.32
2019-05-16T04:22:01.049Z,1015.36
2019-05-16T04:23:00.889Z,1015.33
2019-05-16T04:24:01.005Z,1015.32
2019-05-16T04:24:57.722Z,1015.33
2019-05-16T04:26:00.446Z,1015.34
2019-05-16T04:27:00.778Z,1015.35
2019-05-16T04:27:57.654Z,1015.34
2019-05-16T04:29:00.545Z,1015.37
2019-05-16T04:30:01.202Z,1015.35
2019-05-16T04:30:57.591Z,1015.35
2019-05-16T04:31:57.567Z,1015.36
2019-05-16T04:32:57.545Z,1015.36
2019-05-16T04:34:00.843Z,1015.36
2019-05-16T04:34:57.506Z,1015.36
2019-05-16T04:35:57.487Z,1015.40
2019-05-16T04:37:00.886Z,1015.37
2019-05-16T04:37:57.439Z,1015.37
2019-05-16T04:38:57.417Z,1015.36
2019-05-16T04:39:57.394Z,1015.37
2019-05-16T04:40:57.373Z,1015.34
2019-05-16T04:41:57.357Z,1015.34
2019-05-16T04:42:57.329Z,1015.35
2019-05-16T04:44:01.449Z,1015.34
2019-05-16T04:44:57.287Z,1015.31
2019-05-16T04:45:57.262Z,1015.34
2019-05-16T04:46:57.244Z,1015.33
2019-05-16T04:48:00.228Z,1015.32
2019-05-16T04:48:57.204Z,1015.31
2019-05-16T04:49:57.179Z,1015.32
2019-05-16T04:50:57.153Z,1015.32
2019-05-16T04:52:00.372Z,1015.31
2019-05-16T04:52:57.114Z,1015.31
2019-05-16T04:53:57.097Z,1015.32
2019-05-16T04:54:57.072Z,1015.28
2019-05-16T04:55:57.067Z,1015.32
2019-05-16T04:56:57.046Z,1015.33
2019-05-16T04:57:57.005Z,1015.32
2019-05-16T04:58:56.986Z,1015.32
2019-05-16T04:59:56.962Z,1015.36
2019-05-16T05:00:56.938Z,1015.33
2019-05-16T05:01:56.922Z,1015.30
2019-05-16T05:02:56.899Z,1015.31
2019-05-16T05:04:06.626Z,1015.31
2019-05-16T05:04:56.851Z,1015.33
2019-05-16T05:05:56.830Z,1015.30
2019-05-16T05:06:56.812Z,1015.30
2019-05-16T05:07:56.787Z,1015.32
2019-05-16T05:08:58.698Z,1015.29
2019-05-16T05:09:56.751Z,1015.28
2019-05-16T05:10:56.725Z,1015.26
2019-05-16T05:12:00.430Z,1015.33
2019-05-16T05:12:56.680Z,1015.33
2019-05-16T05:13:56.670Z,1015.28
2019-05-16T05:14:56.638Z,1015.28
2019-05-16T05:15:56.613Z,1015.24
2019-05-16T05:16:56.594Z,1015.27
2019-05-16T05:17:56.572Z,1015.29
2019-05-16T05:18:56.550Z,1015.25
2019-05-16T05:19:56.538Z,1015.31
2019-05-16T05:20:56.506Z,1015.31
2019-05-16T05:21:56.497Z,1015.32
2019-05-16T05:22:56.464Z,1015.28
2019-05-16T05:23:56.441Z,1015.36
2019-05-16T05:24:56.418Z,1015.31
2019-05-16T05:25:56.398Z,1015.30
2019-05-16T05:26:56.376Z,1015.30
2019-05-16T05:27:56.359Z,1015.26
2019-05-16T05:28:56.334Z,1015.28
2019-05-16T05:29:56.311Z,1015.26
2019-05-16T05:30:56.289Z,1015.29
2019-05-16T05:31:56.280Z,1015.24
2019-05-16T05:32:56.250Z,1015.25
2019-05-16T05:33:56.226Z,1015.27
2019-05-16T05:34:56.206Z,1015.27
2019-05-16T05:35:56.188Z,1015.25
2019-05-16T05:36:56.161Z,1015.22
2019-05-16T05:37:56.141Z,1015.27
2019-05-16T05:39:08.995Z,1015.27
2019-05-16T05:39:56.096Z,1015.25
2019-05-16T05:40:56.074Z,1015.26
2019-05-16T05:41:56.053Z,1015.26
2019-05-16T05:42:56.032Z,1015.28
2019-05-16T05:43:56.010Z,1015.27
2019-05-16T05:44:55.989Z,1015.21
2019-05-16T05:45:55.966Z,1015.26
2019-05-16T05:46:55.947Z,1015.23
2019-05-16T05:47:55.924Z,1015.25
2019-05-16T05:48:55.907Z,1015.21
2019-05-16T05:49:55.884Z,1015.23
2019-05-16T05:50:55.861Z,1015.22
2019-05-16T05:51:55.836Z,1015.21
2019-05-16T05:52:55.817Z,1015.24
2019-05-16T05:53:55.793Z,1015.23
2019-05-16T05:54:55.780Z,1015.20
2019-05-16T05:55:55.754Z,1015.22
2019-05-16T05:56:55.731Z,1015.23
2019-05-16T05:57:55.711Z,1015.23
2019-05-16T05:58:58.103Z,1015.19
2019-05-16T05:59:55.665Z,1015.18
2019-05-16T06:00:55.645Z,1015.21
2019-05-16T06:01:55.625Z,1015.16
2019-05-16T06:02:55.605Z,1015.17
2019-05-16T06:03:55.581Z,1015.17
2019-05-16T06:04:55.564Z,1015.18
2019-05-16T06:05:55.543Z,1015.18
2019-05-16T06:06:55.519Z,1015.20
2019-05-16T06:07:55.495Z,1015.21
2019-05-16T06:08:55.471Z,1015.19
2019-05-16T06:09:56.564Z,1015.22
2019-05-16T06:10:55.429Z,1015.23
2019-05-16T06:11:55.411Z,1015.24
2019-05-16T06:12:55.394Z,1015.26
2019-05-16T06:13:55.371Z,1015.23
2019-05-16T06:14:55.349Z,1015.25
2019-05-16T06:15:55.321Z,1015.21
2019-05-16T06:16:55.307Z,1015.18
2019-05-16T06:17:55.278Z,1015.18
2019-05-16T06:18:56.812Z,1015.18
2019-05-16T06:19:55.238Z,1015.16
2019-05-16T06:20:55.212Z,1015.12
2019-05-16T06:21:55.205Z,1015.16
2019-05-16T06:22:55.182Z,1015.12
2019-05-16T06:23:55.155Z,1015.11
2019-05-16T06:24:55.140Z,1015.11
2019-05-16T06:25:55.107Z,1015.08
2019-05-16T06:26:55.086Z,1015.11
2019-05-16T06:27:55.068Z,1015.08
2019-05-16T06:28:55.039Z,1015.09
2019-05-16T06:29:57.376Z,1015.08
2019-05-16T06:30:55.013Z,1015.06
2019-05-16T06:31:54.975Z,1015.10
2019-05-16T06:32:54.955Z,1015.08
2019-05-16T06:33:54.937Z,1015.11
2019-05-16T06:34:54.911Z,1015.08
2019-05-16T06:35:54.887Z,1015.08
2019-05-16T06:36:54.873Z,1015.10
2019-05-16T06:37:54.845Z,1015.10
2019-05-16T06:38:54.834Z,1015.11
2019-05-16T06:39:54.801Z,1015.11
2019-05-16T06:40:54.781Z,1015.12
2019-05-16T06:41:54.758Z,1015.06
2019-05-16T06:42:54.740Z,1015.09
2019-05-16T06:43:54.717Z,1015.10
2019-05-16T06:44:54.695Z,1015.10
2019-05-16T06:45:54.673Z,1015.05
2019-05-16T06:47:08.857Z,1015.04
2019-05-16T06:47:54.628Z,1015.03
2019-05-16T06:48:54.606Z,1015.01
2019-05-16T06:49:54.585Z,1015.02
2019-05-16T06:50:54.570Z,1014.97
2019-05-16T06:51:54.562Z,1015.03
2019-05-16T06:52:54.519Z,1015.01
2019-05-16T06:53:54.497Z,1014.99
2019-05-16T06:54:54.481Z,1015.01
2019-05-16T06:55:54.456Z,1014.99
2019-05-16T06:56:54.435Z,1015.07
2019-05-16T06:57:57.149Z,1015.02
2019-05-16T06:58:54.390Z,1015.04
2019-05-16T06:59:54.368Z,1014.98
2019-05-16T07:00:54.354Z,1015.01
2019-05-16T07:01:54.328Z,1014.95
2019-05-16T07:02:54.305Z,1015.00
2019-05-16T07:03:54.282Z,1014.96
2019-05-16T07:04:54.264Z,1014.98
2019-05-16T07:05:54.248Z,1014.96
2019-05-16T07:06:59.249Z,1014.92
2019-05-16T07:07:54.197Z,1014.89
2019-05-16T07:08:54.176Z,1014.90
2019-05-16T07:10:00.232Z,1014.92
2019-05-16T07:10:54.135Z,1014.88
2019-05-16T07:11:54.109Z,1014.85
2019-05-16T07:12:54.100Z,1014.87
2019-05-16T07:13:54.076Z,1014.83
2019-05-16T07:14:54.047Z,1014.87
2019-05-16T07:15:54.029Z,1014.81
2019-05-16T07:16:54.005Z,1014.86
2019-05-16T07:17:53.978Z,1014.81
2019-05-16T07:18:53.960Z,1014.85
2019-05-16T07:19:53.941Z,1014.80
2019-05-16T07:20:53.920Z,1014.82
2019-05-16T07:21:53.899Z,1014.82
2019-05-16T07:22:53.879Z,1014.81
2019-05-16T07:23:53.850Z,1014.79
2019-05-16T07:24:53.835Z,1014.78
2019-05-16T07:25:53.816Z,1014.76
2019-05-16T07:26:53.786Z,1014.75
2019-05-16T07:27:53.772Z,1014.72
2019-05-16T07:28:53.749Z,1014.75
2019-05-16T07:29:53.733Z,1014.70
2019-05-16T07:30:53.702Z,1014.75
2019-05-16T07:31:53.689Z,1014.70
2019-05-16T07:32:53.657Z,1014.77
2019-05-16T07:33:53.637Z,1014.71
2019-05-16T07:34:53.621Z,1014.69
2019-05-16T07:35:53.601Z,1014.74
2019-05-16T07:36:53.570Z,1014.68
2019-05-16T07:37:53.549Z,1014.72
2019-05-16T07:38:53.536Z,1014.75
2019-05-16T07:39:53.506Z,1014.76
2019-05-16T07:40:53.485Z,1014.72
2019-05-16T07:41:53.463Z,1014.71
2019-05-16T07:42:53.448Z,1014.70
2019-05-16T07:43:53.422Z,1014.70
2019-05-16T07:44:53.408Z,1014.73
2019-05-16T07:45:53.388Z,1014.67
2019-05-16T07:46:53.362Z,1014.68
2019-05-16T07:47:53.341Z,1014.66
2019-05-16T07:48:53.314Z,1014.64
2019-05-16T07:49:53.292Z,1014.64
2019-05-16T07:50:53.271Z,1014.60
2019-05-16T07:51:53.249Z,1014.62
2019-05-16T07:52:53.230Z,1014.64
2019-05-16T07:53:53.212Z,1014.56
2019-05-16T07:54:53.188Z,1014.60
2019-05-16T07:55:53.163Z,1014.59
2019-05-16T07:56:59.647Z,1014.61
2019-05-16T07:57:53.122Z,1014.52
2019-05-16T07:58:53.100Z,1014.54
2019-05-16T07:59:53.076Z,1014.49
2019-05-16T08:01:02.869Z,1014.51
2019-05-16T08:01:54.159Z,1014.48
2019-05-16T08:02:53.014Z,1014.44
2019-05-16T08:03:52.999Z,1014.45
2019-05-16T08:04:52.975Z,1014.42
2019-05-16T08:05:52.959Z,1014.45
2019-05-16T08:06:52.929Z,1014.45
2019-05-16T08:07:52.906Z,1014.41
2019-05-16T08:08:52.889Z,1014.43
2019-05-16T08:09:52.864Z,1014.39
2019-05-16T08:10:52.844Z,1014.39
2019-05-16T08:11:52.820Z,1014.39
2019-05-16T08:12:52.800Z,1014.41
2019-05-16T08:13:52.786Z,1014.41
2019-05-16T08:14:52.757Z,1014.39
2019-05-16T08:15:52.740Z,1014.44
2019-05-16T08:16:52.725Z,1014.37
2019-05-16T08:17:52.715Z,1014.36
2019-05-16T08:18:52.674Z,1014.39
2019-05-16T08:19:52.653Z,1014.35
2019-05-16T08:20:52.900Z,1014.31
2019-05-16T08:21:52.610Z,1014.31
2019-05-16T08:22:52.588Z,1014.31
2019-05-16T08:23:52.577Z,1014.27
2019-05-16T08:24:52.554Z,1014.27
2019-05-16T08:25:52.544Z,1014.19
2019-05-16T08:26:52.504Z,1014.24
2019-05-16T08:27:52.481Z,1014.29
2019-05-16T08:28:52.461Z,1014.30
2019-05-16T08:29:52.483Z,1014.31
2019-05-16T08:30:53.186Z,1014.31
2019-05-16T08:31:53.018Z,1014.28
2019-05-16T08:32:53.089Z,1014.28
2019-05-16T08:33:54.910Z,1014.30
2019-05-16T08:34:52.336Z,1014.29
2019-05-16T08:35:52.312Z,1014.29
2019-05-16T08:36:52.297Z,1014.25
2019-05-16T08:37:52.271Z,1014.25
2019-05-16T08:38:52.253Z,1014.24
2019-05-16T08:39:52.229Z,1014.23
2019-05-16T08:41:08.183Z,1014.17
2019-05-16T08:41:52.302Z,1014.20
2019-05-16T08:42:52.207Z,1014.19
2019-05-16T08:43:53.481Z,1014.19
2019-05-16T08:44:52.199Z,1014.20
2019-05-16T08:45:52.191Z,1014.14
2019-05-16T08:48:54.058Z,1014.16
2019-05-16T08:49:52.388Z,1014.16
2019-05-16T08:50:54.607Z,1014.14
2019-05-16T08:51:53.396Z,1014.10
2019-05-16T08:52:53.065Z,1014.11
2019-05-16T08:53:51.948Z,1014.09
2019-05-16T08:54:52.030Z,1014.09
2019-05-16T08:55:51.894Z,1014.09
2019-05-16T08:56:51.904Z,1014.08
2019-05-16T08:57:52.979Z,1014.08
2019-05-16T08:59:52.542Z,1014.08
2019-05-16T09:00:55.378Z,1013.99
2019-05-16T09:01:58.549Z,1014.02
2019-05-16T09:02:52.576Z,1014.00
2019-05-16T09:03:52.364Z,1014.01
2019-05-16T09:04:53.345Z,1014.01
2019-05-16T09:05:53.517Z,1014.04
2019-05-16T09:06:52.595Z,1013.99
2019-05-16T09:08:00.234Z,1013.96
2019-05-16T09:08:51.639Z,1013.95
2019-05-16T09:09:52.332Z,1013.99
2019-05-16T09:10:21.437Z,1014.17
2019-05-16T09:10:40.143Z,1014.12
2019-05-16T09:11:01.689Z,1013.93
2019-05-16T09:11:51.566Z,1013.92
2019-05-16T09:12:51.554Z,1013.89
2019-05-16T09:13:51.532Z,1013.87
2019-05-16T09:14:51.502Z,1013.84
2019-05-16T09:15:51.481Z,1013.84
2019-05-16T09:16:51.468Z,1013.82
2019-05-16T09:17:51.448Z,1013.88
2019-05-16T09:18:30.616Z,1014.13
2019-05-16T09:18:51.593Z,1013.86
2019-05-16T09:19:51.398Z,1013.80
2019-05-16T09:20:51.395Z,1013.85
2019-05-16T09:21:51.358Z,1013.83
2019-05-16T09:22:51.341Z,1013.82
2019-05-16T09:23:51.314Z,1013.84
2019-05-16T09:24:51.295Z,1013.86
2019-05-16T09:25:51.276Z,1013.83
2019-05-16T09:26:51.254Z,1013.82
2019-05-16T09:27:51.275Z,1013.74
2019-05-16T09:28:51.213Z,1013.78
2019-05-16T09:29:51.193Z,1013.78
2019-05-16T09:30:51.176Z,1013.77
2019-05-16T09:32:07.994Z,1013.72
2019-05-16T09:32:51.130Z,1013.70
2019-05-16T09:33:51.111Z,1013.71
2019-05-16T09:34:51.148Z,1013.71
2019-05-16T09:35:51.124Z,1013.63
2019-05-16T09:36:51.049Z,1013.62
2019-05-16T09:37:51.028Z,1013.64
2019-05-16T09:38:51.009Z,1013.63
2019-05-16T09:39:50.985Z,1013.60
2019-05-16T09:40:50.971Z,1013.64
2019-05-16T09:41:54.780Z,1013.65
2019-05-16T09:42:50.929Z,1013.66
2019-05-16T09:43:50.907Z,1013.61
2019-05-16T09:44:50.884Z,1013.62
2019-05-16T09:45:50.865Z,1013.60
2019-05-16T09:46:50.845Z,1013.59
2019-05-16T09:47:50.825Z,1013.58
2019-05-16T09:49:11.758Z,1013.51
2019-05-16T09:49:50.781Z,1013.54
2019-05-16T09:50:50.771Z,1013.62
2019-05-16T09:51:50.745Z,1013.58
2019-05-16T09:52:50.720Z,1013.60
2019-05-16T09:53:50.701Z,1013.55
2019-05-16T09:54:50.681Z,1013.59
2019-05-16T09:55:50.659Z,1013.56
2019-05-16T09:56:50.642Z,1013.58
2019-05-16T09:57:50.620Z,1013.60
2019-05-16T09:58:50.611Z,1013.60
2019-05-16T09:59:50.582Z,1013.63
2019-05-16T10:00:50.559Z,1013.58
2019-05-16T10:01:50.537Z,1013.54
2019-05-16T10:02:50.526Z,1013.57
2019-05-16T10:03:50.503Z,1013.59
2019-05-16T10:04:50.475Z,1013.58
2019-05-16T10:05:50.459Z,1013.59
2019-05-16T10:06:50.441Z,1013.55
2019-05-16T10:07:50.429Z,1013.56
2019-05-16T10:08:50.394Z,1013.56
2019-05-16T10:09:50.528Z,1013.51
2019-05-16T10:10:50.353Z,1013.49
2019-05-16T10:12:05.480Z,1013.51
2019-05-16T10:12:50.312Z,1013.47
2019-05-16T10:13:50.306Z,1013.47
2019-05-16T10:14:50.273Z,1013.49
2019-05-16T10:15:50.253Z,1013.46
2019-05-16T10:16:50.232Z,1013.44
2019-05-16T10:17:50.217Z,1013.47
2019-05-16T10:18:50.193Z,1013.44
2019-05-16T10:19:50.170Z,1013.45
2019-05-16T10:20:50.151Z,1013.44
2019-05-16T10:21:50.168Z,1013.43
2019-05-16T10:22:50.592Z,1013.47
2019-05-16T10:23:50.090Z,1013.39
2019-05-16T10:24:50.071Z,1013.39
2019-05-16T10:25:50.055Z,1013.37
2019-05-16T10:26:53.828Z,1013.30
2019-05-16T10:27:50.027Z,1013.29
2019-05-16T10:28:49.996Z,1013.30
2019-05-16T10:29:49.971Z,1013.24
2019-05-16T10:30:50.339Z,1013.27
2019-05-16T10:31:53.300Z,1013.27
2019-05-16T10:32:49.919Z,1013.23
2019-05-16T10:33:49.886Z,1013.31
2019-05-16T10:34:49.864Z,1013.29
2019-05-16T10:35:49.847Z,1013.29
2019-05-16T10:36:49.826Z,1013.23
2019-05-16T10:37:49.804Z,1013.19
2019-05-16T10:38:49.793Z,1013.10
2019-05-16T10:39:49.765Z,1013.14
2019-05-16T10:40:49.752Z,1013.16
2019-05-16T10:41:49.722Z,1013.21
2019-05-16T10:42:49.713Z,1013.22
2019-05-16T10:43:49.683Z,1013.21
2019-05-16T10:44:49.660Z,1013.12
2019-05-16T10:45:49.640Z,1013.13
2019-05-16T10:46:49.648Z,1013.14
2019-05-16T10:47:49.609Z,1013.12
2019-05-16T10:48:49.580Z,1013.13
2019-05-16T10:49:49.559Z,1013.15
2019-05-16T10:50:49.583Z,1013.11
2019-05-16T10:51:49.556Z,1013.14
2019-05-16T10:53:12.926Z,1013.07
2019-05-16T10:54:05.706Z,1013.10
2019-05-16T10:54:58.143Z,1013.12
2019-05-16T10:55:49.437Z,1013.14
2019-05-16T10:56:49.460Z,1013.17
2019-05-16T10:57:49.508Z,1013.13
2019-05-16T10:59:14.733Z,1013.11
2019-05-16T11:00:05.297Z,1013.10
2019-05-16T11:01:11.279Z,1013.10
2019-05-16T11:01:49.318Z,1013.06
2019-05-16T11:02:49.343Z,1013.10
2019-05-16T11:03:49.431Z,1013.10
2019-05-16T11:05:00.047Z,1013.11
2019-05-16T11:06:02.933Z,1013.07
2019-05-16T11:06:49.214Z,1013.08
2019-05-16T11:07:52.931Z,1013.07
2019-05-16T11:08:49.168Z,1013.09
2019-05-16T11:09:58.545Z,1013.11
2019-05-16T11:10:49.145Z,1013.09
2019-05-16T11:11:49.106Z,1013.07
2019-05-16T11:12:54.228Z,1013.05
2019-05-16T11:13:51.076Z,1013.01
2019-05-16T11:14:49.052Z,1013.00
2019-05-16T11:15:49.026Z,1013.01
2019-05-16T11:16:49.016Z,1013.02
2019-05-16T11:17:48.984Z,1013.05
2019-05-16T11:18:48.970Z,1012.99
2019-05-16T11:19:48.945Z,1012.96
2019-05-16T11:20:49.658Z,1013.00
2019-05-16T11:21:48.899Z,1012.98
2019-05-16T11:22:48.880Z,1012.94
2019-05-16T11:23:48.860Z,1012.96
2019-05-16T11:24:48.847Z,1012.99
2019-05-16T11:25:48.821Z,1012.92
2019-05-16T11:26:48.796Z,1012.92
2019-05-16T11:27:48.773Z,1012.92
2019-05-16T11:28:49.371Z,1012.91
2019-05-16T11:29:48.733Z,1012.90
2019-05-16T11:30:49.879Z,1012.90
2019-05-16T11:31:48.691Z,1012.88
2019-05-16T11:32:48.670Z,1012.85
2019-05-16T11:33:48.660Z,1012.82
2019-05-16T11:34:48.636Z,1012.83
2019-05-16T11:35:48.619Z,1012.77
2019-05-16T11:36:48.594Z,1012.76
2019-05-16T11:37:48.578Z,1012.69
2019-05-16T11:38:48.551Z,1012.70
2019-05-16T11:39:48.531Z,1012.62
2019-05-16T11:40:48.508Z,1012.60
2019-05-16T11:41:48.486Z,1012.60
2019-05-16T11:43:05.076Z,1012.54
2019-05-16T11:43:48.449Z,1012.54
2019-05-16T11:44:48.424Z,1012.50
2019-05-16T11:45:48.402Z,1012.46
2019-05-16T11:46:48.979Z,1012.39
2019-05-16T11:47:48.362Z,1012.45
2019-05-16T11:48:49.138Z,1012.45
2019-05-16T11:49:48.318Z,1012.46
2019-05-16T11:50:48.344Z,1012.43
2019-05-16T11:51:48.330Z,1012.49
2019-05-16T11:52:48.268Z,1012.46
2019-05-16T11:53:48.242Z,1012.45
2019-05-16T11:54:48.221Z,1012.49
2019-05-16T11:55:55.480Z,1012.43
2019-05-16T11:56:48.175Z,1012.43
2019-05-16T11:57:48.155Z,1012.43
2019-05-16T11:58:48.139Z,1012.43
2019-05-16T11:59:48.118Z,1012.41
2019-05-16T12:00:48.544Z,1012.45
2019-05-16T12:01:48.078Z,1012.42
2019-05-16T12:02:48.113Z,1012.43
2019-05-16T12:03:48.035Z,1012.45
2019-05-16T12:04:48.012Z,1012.45